Terminal Aerodrome Forecast
Issued by NWS

Home | Current Version | Previous Version | Text Only | Print | Product List | Glossary On
Versions: 1 2 3 4 5 6 7 8 9 10 11 12 13 14 15 16 17 18 19 20 21 22 23 24 25 26 27 28 29 30
000
FTUS41 KOKX 291132
TAFHPN
TAF
KHPN 291132Z 2912/3012 VRB04KT P6SM SCT150 BKN200
     FM291400 20007KT P6SM FEW050 SCT200
     FM291600 18013G20KT P6SM SCT050 SCT250
     FM300000 20017G23KT P6SM FEW050 SCT080 WS020/24040KT
     FM300300 22012G17KT P6SM SCT050 SCT080 WS020/24040KT
     FM301000 23010KT P6SM FEW040 SCT070
      AMD NOT SKED=

USA.gov is the U.S. government's official web portal to all federal, state and local government web resources and services.